Time;durP1;ratioP1;P1;durP2;ratioP2;P2;SDS_P1;SDS_P2;PMS_P1;PMS_P2;Temp;Humidity;BMP_temperature;BMP_pressure;BME280_temperature;BME280_humidity;BME280_pressure;Samples;Min_cycle;Max_cycle;Signal;HPM_P1;HPM_P2
2023/05/07 00:02:07;;;;;;;25.38;15.55;;;;;;;7.90;86.57;101913.72;5095701;28;20078;-57
2023/05/07 00:04:36;;;;;;;21.90;15.18;;;;;;;7.90;86.70;101911.09;5095914;28;20028;-57
2023/05/07 00:07:02;;;;;;;21.10;14.68;;;;;;;7.94;86.31;101911.06;5095519;28;20357;-57
2023/05/07 00:09:28;;;;;;;24.83;15.18;;;;;;;7.98;85.71;101908.34;5095936;28;20093;-58
2023/05/07 00:11:53;;;;;;;23.40;14.57;;;;;;;7.89;85.56;101904.13;5114583;28;20032;-57
2023/05/07 00:14:19;;;;;;;27.98;15.60;;;;;;;7.92;86.32;101910.22;5111077;28;20448;-57
2023/05/07 00:16:44;;;;;;;31.95;18.27;;;;;;;7.93;85.88;101911.94;5095875;28;20046;-58
2023/05/07 00:19:10;;;;;;;47.15;30.88;;;;;;;7.88;86.10;101915.53;5101950;28;20024;-58
2023/05/07 00:21:35;;;;;;;27.23;17.00;;;;;;;7.94;85.80;101913.69;5105712;28;20056;-57
2023/05/07 00:24:01;;;;;;;22.40;14.48;;;;;;;7.92;85.67;101905.81;5095285;28;20043;-57
2023/05/07 00:26:26;;;;;;;21.00;13.25;;;;;;;7.89;85.84;101906.75;5095795;28;20427;-57
2023/05/07 00:28:51;;;;;;;19.58;14.05;;;;;;;7.95;85.49;101907.53;5094713;28;20027;-57
2023/05/07 00:31:17;;;;;;;19.50;13.20;;;;;;;8.02;84.74;101906.53;5107116;28;20063;-57
2023/05/07 00:33:42;;;;;;;21.20;13.10;;;;;;;8.03;84.96;101897.75;5114550;28;20080;-57
2023/05/07 00:36:08;;;;;;;23.08;13.38;;;;;;;7.98;84.39;101915.38;5115576;28;20428;-58
2023/05/07 00:38:33;;;;;;;18.38;13.32;;;;;;;7.95;84.67;101910.16;5115711;28;20080;-57
2023/05/07 00:40:58;;;;;;;22.65;13.85;;;;;;;7.94;84.35;101911.91;5114158;28;20157;-57
2023/05/07 00:43:24;;;;;;;25.35;12.27;;;;;;;7.99;83.87;101896.91;5114495;28;20031;-57
2023/05/07 00:45:49;;;;;;;18.45;12.73;;;;;;;7.95;84.02;101910.16;5115390;28;20317;-57
2023/05/07 00:48:16;;;;;;;24.58;13.85;;;;;;;7.92;83.51;101910.22;5115516;28;20028;-58
2023/05/07 00:50:41;;;;;;;17.20;12.82;;;;;;;7.96;84.64;101917.16;5114036;28;20030;-58
2023/05/07 00:53:07;;;;;;;20.75;12.57;;;;;;;7.94;84.12;101911.06;5109439;28;20118;-58
2023/05/07 00:55:32;;;;;;;17.20;11.57;;;;;;;7.93;84.95;101907.56;5097204;28;20346;-58
2023/05/07 00:57:58;;;;;;;19.02;12.75;;;;;;;7.95;84.65;101910.16;5114165;28;20122;-57
2023/05/07 01:00:24;;;;;;;21.92;13.02;;;;;;;7.91;84.12;101904.06;5114030;28;20043;-57
2023/05/07 01:02:50;;;;;;;16.30;11.85;;;;;;;7.95;83.98;101910.16;5110844;28;20474;-58
2023/05/07 01:05:17;;;;;;;15.82;11.70;;;;;;;7.95;84.60;101904.91;5108143;27;20082;-58
2023/05/07 01:07:43;;;;;;;19.88;13.13;;;;;;;7.94;84.27;101913.69;5133786;27;20084;-58
2023/05/07 01:10:09;;;;;;;24.90;13.07;;;;;;;7.92;84.68;101905.81;5101057;28;20080;-58
2023/05/07 01:12:36;;;;;;;18.58;11.48;;;;;;;7.92;83.99;101904.94;5113096;28;20569;-58
2023/05/07 01:15:03;;;;;;;23.05;14.05;;;;;;;7.93;84.49;101909.31;5114395;28;20464;-58
2023/05/07 01:17:28;;;;;;;19.55;12.60;;;;;;;7.95;84.65;101907.53;5108355;28;20050;-58
2023/05/07 01:19:54;;;;;;;16.42;12.20;;;;;;;7.97;84.98;101905.75;5098084;28;20524;-58
2023/05/07 01:22:34;;;;;;;19.25;12.68;;;;;;;8.00;84.10;101897.78;5114506;28;20528;-58
2023/05/07 01:25:01;;;;;;;17.45;12.07;;;;;;;8.03;83.35;101897.75;5112687;28;20023;-58
2023/05/07 01:27:27;;;;;;;20.98;12.77;;;;;;;8.09;83.50;101897.63;5111840;28;20043;-58
2023/05/07 01:29:52;;;;;;;15.75;11.07;;;;;;;8.08;83.01;101895.91;5114407;28;20032;-58
2023/05/07 01:32:27;;;;;;;18.52;12.60;;;;;;;8.11;83.03;101887.94;5114762;28;20123;-58
2023/05/07 01:34:54;;;;;;;16.45;11.52;;;;;;;8.04;83.30;101883.66;5113953;28;20433;-58
2023/05/07 01:37:20;;;;;;;19.63;11.60;;;;;;;7.92;83.10;101886.53;5095331;28;20118;-58
2023/05/07 01:39:47;;;;;;;18.25;11.63;;;;;;;7.92;83.52;101886.53;5094013;28;20484;-58
2023/05/07 01:42:13;;;;;;;19.77;13.20;;;;;;;7.95;83.56;101894.38;5093617;28;20059;-58
2023/05/07 01:44:38;;;;;;;16.48;10.95;;;;;;;7.93;83.64;101891.75;5094720;28;20128;-58
2023/05/07 01:47:04;;;;;;;19.80;12.10;;;;;;;7.97;83.90;101898.69;5110294;28;20110;-58
2023/05/07 01:49:30;;;;;;;19.27;11.93;;;;;;;7.98;83.34;101894.31;5112390;28;20537;-58
2023/05/07 01:51:55;;;;;;;17.02;11.23;;;;;;;8.01;83.55;101889.88;5102847;28;20032;-59
2023/05/07 01:54:27;;;;;;;15.52;10.82;;;;;;;7.98;83.35;101902.22;5112661;28;20024;-58
2023/05/07 01:56:53;;;;;;;16.38;10.88;;;;;;;7.95;82.94;101894.38;5113288;28;20115;-57
2023/05/07 01:59:18;;;;;;;15.70;10.07;;;;;;;7.98;83.11;101900.44;5113876;28;20114;-58
2023/05/07 02:01:44;;;;;;;19.35;11.02;;;;;;;7.96;83.11;101901.34;5114220;27;20031;-58
2023/05/07 02:04:09;;;;;;;18.67;11.63;;;;;;;7.93;83.05;101911.94;5096293;28;20020;-58
2023/05/07 02:06:34;;;;;;;18.02;10.30;;;;;;;7.89;83.49;101914.63;5113797;27;20063;-58
2023/05/07 02:09:00;;;;;;;15.05;10.75;;;;;;;7.83;83.33;101912.09;5094488;28;20028;-58
2023/05/07 02:11:25;;;;;;;12.20;9.52;;;;;;;7.88;83.27;101914.66;5102021;28;20027;-58
2023/05/07 02:13:50;;;;;;;17.55;11.68;;;;;;;7.90;83.24;101913.72;5112091;28;20103;-57
2023/05/07 02:16:16;;;;;;;15.13;10.32;;;;;;;7.96;82.78;101917.16;5113168;28;20118;-58
2023/05/07 02:18:41;;;;;;;17.80;10.82;;;;;;;7.98;82.90;101920.66;5111432;28;20020;-58
2023/05/07 02:21:07;;;;;;;11.73;9.27;;;;;;;7.96;82.97;101911.88;5094532;28;20028;-58
2023/05/07 02:23:32;;;;;;;13.50;10.68;;;;;;;7.92;83.25;101916.34;5097367;28;20089;-58
2023/05/07 02:25:58;;;;;;;16.55;9.75;;;;;;;7.94;83.26;101916.31;5113851;28;20038;-58
2023/05/07 02:28:23;;;;;;;16.27;10.15;;;;;;;7.94;83.01;101913.69;5113555;28;20019;-58
2023/05/07 02:30:49;;;;;;;15.05;9.23;;;;;;;7.92;82.71;101916.34;5099740;28;20052;-59
2023/05/07 02:33:14;;;;;;;14.32;10.18;;;;;;;7.90;82.40;101929.53;5093790;28;20458;-59
2023/05/07 02:35:39;;;;;;;20.75;9.85;;;;;;;7.95;82.68;101928.59;5106215;28;20028;-58
2023/05/07 02:38:05;;;;;;;13.68;9.80;;;;;;;7.98;82.14;101925.91;5093492;28;20073;-57
2023/05/07 02:40:33;;;;;;;18.73;9.70;;;;;;;7.96;82.23;101927.69;5100146;28;20101;-57
2023/05/07 02:42:59;;;;;;;14.02;9.63;;;;;;;7.95;82.81;101925.97;5112145;28;20028;-58
2023/05/07 02:45:24;;;;;;;16.05;9.93;;;;;;;7.89;82.30;101930.44;5113618;28;20038;-58
2023/05/07 02:47:50;;;;;;;14.80;9.65;;;;;;;7.89;82.31;101933.06;5122903;28;20032;-58
2023/05/07 02:50:15;;;;;;;14.75;9.35;;;;;;;7.91;82.66;101930.38;5095114;28;20028;-57
2023/05/07 02:52:41;;;;;;;13.55;9.73;;;;;;;7.87;81.66;101924.31;5099380;28;20095;-58
2023/05/07 02:55:06;;;;;;;12.25;8.70;;;;;;;7.82;81.34;101936.66;5097129;28;20028;-58
2023/05/07 02:57:32;;;;;;;13.70;9.63;;;;;;;7.79;81.60;101931.44;5100622;27;20024;-58
2023/05/07 02:59:58;;;;;;;13.38;9.55;;;;;;;7.85;81.20;101931.38;5104002;28;20042;-58
2023/05/07 03:02:23;;;;;;;12.85;8.68;;;;;;;7.82;81.06;101931.41;5117480;28;20027;-58
2023/05/07 03:04:49;;;;;;;13.70;9.35;;;;;;;7.85;80.36;101935.78;5117950;27;20483;-58
2023/05/07 03:07:14;;;;;;;11.82;9.18;;;;;;;7.83;80.90;101938.44;5104065;27;20734;-58
2023/05/07 03:09:39;;;;;;;11.43;8.63;;;;;;;7.83;80.47;101943.69;5097013;28;20077;-59
2023/05/07 03:12:05;;;;;;;12.43;9.00;;;;;;;7.84;80.08;101934.88;5117110;28;20328;-58
2023/05/07 03:14:30;;;;;;;11.95;8.38;;;;;;;7.87;80.67;101934.84;5114863;28;20462;-60
2023/05/07 03:16:56;;;;;;;13.50;9.38;;;;;;;7.83;80.96;101938.44;5097128;28;20032;-58
2023/05/07 03:19:21;;;;;;;12.57;9.77;;;;;;;7.84;80.99;101937.50;5097586;28;20027;-58
2023/05/07 03:21:47;;;;;;;14.02;10.27;;;;;;;7.85;81.34;101941.91;5097655;28;20035;-58
2023/05/07 03:24:12;;;;;;;15.43;9.82;;;;;;;7.88;81.25;101941.84;5096220;28;20040;-58
2023/05/07 03:26:37;;;;;;;15.55;9.45;;;;;;;7.84;80.86;101948.03;5097449;28;20028;-58
2023/05/07 03:29:03;;;;;;;17.65;9.27;;;;;;;7.79;81.33;101941.97;5097527;28;20110;-58
2023/05/07 03:31:28;;;;;;;14.85;9.85;;;;;;;7.81;81.56;101945.44;5097848;28;20028;-58
2023/05/07 03:33:55;;;;;;;14.30;9.25;;;;;;;7.88;81.55;101947.13;5096660;28;20059;-58
2023/05/07 03:36:22;;;;;;;16.55;10.10;;;;;;;7.85;81.50;101941.91;5104763;28;20035;-58
2023/05/07 03:38:47;;;;;;;14.45;10.00;;;;;;;7.86;81.04;101948.91;5100167;28;20043;-59
2023/05/07 03:41:13;;;;;;;15.98;9.90;;;;;;;7.86;81.16;101945.38;5099191;28;20136;-58
2023/05/07 03:43:38;;;;;;;14.23;9.52;;;;;;;7.87;81.51;101955.91;5096878;28;20047;-59
2023/05/07 03:46:04;;;;;;;15.70;10.20;;;;;;;7.87;81.03;101955.91;5096430;28;20060;-58
2023/05/07 03:48:30;;;;;;;13.85;10.25;;;;;;;7.84;80.71;101958.56;5096053;28;20031;-59
2023/05/07 03:50:57;;;;;;;15.68;10.73;;;;;;;7.85;80.58;101957.69;5095694;28;20042;-58
2023/05/07 03:53:22;;;;;;;13.25;8.93;;;;;;;7.89;80.11;101959.41;5098567;28;20036;-59
2023/05/07 03:55:47;;;;;;;13.88;8.98;;;;;;;7.93;79.90;101959.31;5116353;28;20405;-58
2023/05/07 03:58:13;;;;;;;13.45;9.60;;;;;;;7.94;79.74;101958.44;5116219;28;20038;-58
2023/05/07 04:00:39;;;;;;;14.35;9.73;;;;;;;7.92;79.99;101954.97;5105182;28;20104;-58
2023/05/07 04:03:05;;;;;;;15.85;9.88;;;;;;;7.89;80.19;101959.41;5095067;28;20059;-58
2023/05/07 04:05:31;;;;;;;15.07;9.73;;;;;;;7.95;79.71;101958.41;5108916;27;20085;-60
2023/05/07 04:07:58;;;;;;;14.25;9.63;;;;;;;7.90;79.90;101961.13;5132599;27;20035;-58
2023/05/07 04:10:24;;;;;;;13.93;9.27;;;;;;;7.89;79.64;101964.66;5101062;28;20019;-57
2023/05/07 04:12:49;;;;;;;14.25;9.68;;;;;;;7.87;80.23;101961.16;5116259;28;20031;-58
2023/05/07 04:15:15;;;;;;;14.65;9.65;;;;;;;7.90;79.90;101966.38;5116073;28;20031;-57
2023/05/07 04:17:41;;;;;;;13.55;10.10;;;;;;;7.96;79.74;101965.44;5108041;28;20012;-59
2023/05/07 04:20:09;;;;;;;16.75;10.63;;;;;;;7.93;79.75;101965.47;5095851;28;20024;-58
2023/05/07 04:22:34;;;;;;;13.23;9.93;;;;;;;7.87;80.01;101971.69;5095418;28;20075;-59
2023/05/07 04:25:00;;;;;;;14.05;10.20;;;;;;;7.92;79.82;101973.41;5095572;28;20120;-58
2023/05/07 04:27:26;;;;;;;18.45;10.02;;;;;;;7.84;79.83;101971.72;5095082;28;20094;-59
2023/05/07 04:29:51;;;;;;;13.63;9.75;;;;;;;7.87;79.72;101982.22;5097466;28;20035;-58
2023/05/07 04:32:17;;;;;;;16.75;10.13;;;;;;;7.92;79.61;101987.41;5115846;28;20028;-58
2023/05/07 04:34:42;;;;;;;10.82;8.27;;;;;;;7.89;79.57;101985.72;5115462;28;20471;-58
2023/05/07 04:37:08;;;;;;;16.88;9.15;;;;;;;7.84;79.50;101987.53;5095505;28;20028;-57
2023/05/07 04:39:35;;;;;;;13.80;9.63;;;;;;;7.86;79.72;101988.41;5095454;28;20169;-58
2023/05/07 04:42:00;;;;;;;12.35;9.57;;;;;;;7.94;79.74;101998.78;5095402;28;20452;-59
2023/05/07 04:44:26;;;;;;;15.52;10.93;;;;;;;7.99;79.18;102006.63;5095059;28;20035;-58
2023/05/07 04:46:51;;;;;;;16.65;10.90;;;;;;;8.02;79.33;102001.31;5095204;28;20077;-57
2023/05/07 04:49:16;;;;;;;15.57;9.68;;;;;;;8.04;79.43;102004.78;5095197;28;20413;-58
2023/05/07 04:51:42;;;;;;;15.50;10.73;;;;;;;8.00;79.32;102008.38;5094739;28;20081;-59
2023/05/07 04:54:08;;;;;;;12.40;9.77;;;;;;;7.94;78.98;102009.31;5104757;28;20486;-58
2023/05/07 04:56:33;;;;;;;14.25;9.13;;;;;;;7.89;78.43;102014.69;5115294;28;20078;-59
2023/05/07 04:58:59;;;;;;;14.90;9.63;;;;;;;7.95;77.88;102020.75;5103752;28;20024;-59
2023/05/07 05:01:25;;;;;;;14.98;9.13;;;;;;;7.89;77.91;102012.06;5110861;28;20042;-59
2023/05/07 05:03:50;;;;;;;15.27;9.80;;;;;;;7.94;78.02;102013.72;5098902;28;20039;-58
2023/05/07 05:06:15;;;;;;;13.00;8.40;;;;;;;7.94;78.34;102019.00;5111033;27;20158;-58
2023/05/07 05:08:41;;;;;;;14.43;8.93;;;;;;;8.00;78.32;102019.78;5112879;28;20062;-58
2023/05/07 05:11:06;;;;;;;19.05;9.93;;;;;;;7.98;77.82;102011.03;5114433;27;20039;-58
2023/05/07 05:13:31;;;;;;;12.00;9.07;;;;;;;8.02;78.42;102017.13;5096822;27;20024;-57
2023/05/07 05:15:57;;;;;;;12.95;9.10;;;;;;;8.02;78.47;102017.13;5100684;28;20055;-59
2023/05/07 05:18:22;;;;;;;12.05;8.75;;;;;;;8.02;78.61;102010.06;5115027;28;20428;-59
2023/05/07 05:20:47;;;;;;;14.18;9.25;;;;;;;8.04;78.34;102016.22;5101361;28;20108;-59
2023/05/07 05:23:13;;;;;;;14.27;9.07;;;;;;;8.08;77.91;102017.03;5106014;28;20052;-58
2023/05/07 05:25:40;;;;;;;13.23;9.60;;;;;;;8.15;77.81;102018.66;5114582;28;20072;-58
2023/05/07 05:28:05;;;;;;;13.80;8.15;;;;;;;8.20;77.79;102022.09;5113170;28;20016;-59
2023/05/07 05:30:30;;;;;;;11.10;8.00;;;;;;;8.20;77.40;102014.19;5105961;28;20359;-58
2023/05/07 05:32:56;;;;;;;13.02;8.65;;;;;;;8.21;77.09;102018.59;5114466;28;20024;-59
2023/05/07 05:35:21;;;;;;;12.57;7.93;;;;;;;8.23;77.32;102022.06;5113392;28;20462;-59
2023/05/07 05:37:48;;;;;;;13.52;8.63;;;;;;;8.32;76.81;102020.16;5114800;28;20020;-59
2023/05/07 05:40:13;;;;;;;14.75;8.45;;;;;;;8.25;76.74;102025.56;5095868;28;20020;-59
2023/05/07 05:42:38;;;;;;;12.57;8.00;;;;;;;8.18;76.61;102034.44;5094847;28;20434;-58
2023/05/07 05:45:04;;;;;;;14.38;9.02;;;;;;;8.32;76.75;102020.16;5093864;28;20024;-59
2023/05/07 05:47:30;;;;;;;17.52;8.95;;;;;;;8.24;75.83;102034.34;5096668;28;20031;-58
2023/05/07 05:49:55;;;;;;;18.40;8.23;;;;;;;8.27;76.18;102036.03;5114764;28;20043;-59
2023/05/07 05:52:23;;;;;;;13.27;8.70;;;;;;;8.25;76.26;102043.09;5114685;28;20020;-58
2023/05/07 05:54:48;;;;;;;13.05;8.82;;;;;;;8.32;76.07;102044.78;5114418;28;20032;-58
2023/05/07 05:57:14;;;;;;;12.50;7.95;;;;;;;8.36;75.57;102035.03;5112759;28;20436;-58
2023/05/07 05:59:39;;;;;;;12.40;8.52;;;;;;;8.45;75.72;102038.44;5112005;28;20034;-58
2023/05/07 06:02:06;;;;;;;10.75;8.02;;;;;;;8.47;76.35;102046.31;5114059;28;20401;-59
2023/05/07 06:04:31;;;;;;;13.15;8.10;;;;;;;8.52;75.41;102047.13;5112305;28;20076;-58
2023/05/07 06:06:57;;;;;;;14.55;8.98;;;;;;;8.55;75.34;102043.53;5099438;27;20036;-59
2023/05/07 06:09:22;;;;;;;9.23;7.35;;;;;;;8.66;75.04;102046.00;5093580;28;20035;-58
2023/05/07 06:11:48;;;;;;;13.07;6.93;;;;;;;8.75;74.73;102046.72;5104842;28;20051;-59
2023/05/07 06:14:13;;;;;;;14.80;8.43;;;;;;;8.85;74.22;102036.88;5105015;28;20104;-58
2023/05/07 06:16:38;;;;;;;15.93;8.15;;;;;;;8.74;74.29;102054.66;5093378;28;20031;-58
2023/05/07 06:19:04;;;;;;;10.32;7.22;;;;;;;8.86;74.07;102054.44;5101294;28;20111;-58
2023/05/07 06:21:30;;;;;;;10.02;7.18;;;;;;;9.04;73.02;102047.09;5101204;28;20035;-58
2023/05/07 06:23:55;;;;;;;9.32;6.78;;;;;;;9.30;72.93;102039.56;5093132;28;20116;-58
2023/05/07 06:26:21;;;;;;;9.32;6.60;;;;;;;9.34;71.66;102041.22;5092807;28;20039;-58
2023/05/07 06:28:46;;;;;;;10.20;7.13;;;;;;;9.48;71.59;102047.97;5094259;28;20115;-58
2023/05/07 06:31:13;;;;;;;9.40;6.60;;;;;;;9.36;70.96;102044.69;5100496;28;20058;-58
2023/05/07 06:33:39;;;;;;;9.57;6.43;;;;;;;9.46;71.81;102049.78;5099833;28;20035;-58
2023/05/07 06:36:05;;;;;;;10.18;6.50;;;;;;;9.64;70.56;102048.53;5111295;28;20028;-58
2023/05/07 06:38:30;;;;;;;9.50;6.10;;;;;;;9.76;69.68;102045.66;5097806;28;20028;-58
2023/05/07 06:40:57;;;;;;;12.15;6.68;;;;;;;9.79;69.25;102039.41;5131174;27;20031;-58
2023/05/07 06:43:23;;;;;;;14.98;6.80;;;;;;;9.65;69.47;102048.50;5131572;28;20107;-58
2023/05/07 06:45:48;;;;;;;10.60;6.47;;;;;;;9.48;70.08;102050.63;5115191;28;20455;-57
2023/05/07 06:48:14;;;;;;;9.38;6.30;;;;;;;9.57;69.68;102057.50;5110615;27;20038;-57
2023/05/07 06:50:39;;;;;;;8.02;5.57;;;;;;;9.79;69.56;102063.19;5094634;28;20074;-58
2023/05/07 06:53:05;;;;;;;6.97;5.72;;;;;;;9.79;70.05;102052.63;5100996;28;20144;-58
2023/05/07 06:55:30;;;;;;;11.60;6.03;;;;;;;9.88;68.82;102052.44;5092701;28;20627;-59
2023/05/07 06:57:57;;;;;;;11.00;6.20;;;;;;;9.94;68.91;102052.31;5105672;28;20114;-58
2023/05/07 07:00:23;;;;;;;9.60;6.25;;;;;;;9.98;68.99;102053.97;5113088;28;20404;-58
2023/05/07 07:02:48;;;;;;;8.82;5.90;;;;;;;9.82;69.22;102055.19;5113180;28;20110;-58
2023/05/07 07:05:14;;;;;;;8.57;5.93;;;;;;;9.98;68.42;102058.38;5112815;28;20099;-58
2023/05/07 07:07:39;;;;;;;6.15;4.90;;;;;;;10.18;68.11;102055.28;5113880;28;20027;-58
2023/05/07 07:10:05;;;;;;;7.72;5.38;;;;;;;10.20;67.92;102059.63;5109628;28;20027;-58
2023/05/07 07:12:30;;;;;;;6.15;5.05;;;;;;;10.37;67.20;102067.19;5111614;28;20024;-58
2023/05/07 07:14:56;;;;;;;8.20;5.55;;;;;;;10.54;66.98;102066.78;5113331;28;20098;-58
2023/05/07 07:17:21;;;;;;;6.82;5.05;;;;;;;10.36;66.50;102068.09;5111474;28;20459;-58
2023/05/07 07:19:46;;;;;;;5.93;4.57;;;;;;;10.22;67.83;102072.81;5113090;28;20019;-58
2023/05/07 07:22:12;;;;;;;9.23;4.88;;;;;;;10.17;67.25;102069.38;5099731;28;20045;-59
2023/05/07 07:24:37;;;;;;;8.98;4.60;;;;;;;9.99;67.08;102071.56;5099833;28;20133;-59
2023/05/07 07:27:03;;;;;;;8.15;4.65;;;;;;;10.07;66.56;102074.91;5091218;28;20046;-57
2023/05/07 07:29:28;;;;;;;6.78;4.40;;;;;;;10.13;67.01;102073.03;5092615;28;20356;-59
2023/05/07 07:31:53;;;;;;;6.80;4.38;;;;;;;10.02;68.17;102075.88;5092764;28;20261;-58
2023/05/07 07:34:19;;;;;;;11.20;4.88;;;;;;;10.13;68.08;102080.94;5093558;28;20051;-58
2023/05/07 07:36:44;;;;;;;10.32;5.68;;;;;;;10.15;68.09;102077.38;5106460;28;20114;-58
2023/05/07 07:39:10;;;;;;;5.85;5.03;;;;;;;10.07;67.74;102080.19;5115762;28;20027;-58
2023/05/07 07:41:35;;;;;;;6.88;4.75;;;;;;;10.26;68.38;102079.75;5114648;28;20031;-58
2023/05/07 07:44:01;;;;;;;8.32;5.50;;;;;;;10.33;67.39;102081.41;5110933;28;20393;-59
2023/05/07 07:46:26;;;;;;;5.00;4.50;;;;;;;10.42;66.67;102080.31;5097634;28;20048;-58
2023/05/07 07:48:52;;;;;;;8.82;4.72;;;;;;;10.54;66.44;102081.78;5101396;28;20675;-59
2023/05/07 07:51:17;;;;;;;8.32;4.75;;;;;;;10.61;65.23;102080.75;5108361;28;20399;-59
2023/05/07 07:53:43;;;;;;;8.18;4.90;;;;;;;10.69;65.86;102075.25;5105625;28;20042;-58
2023/05/07 07:56:08;;;;;;;7.00;4.75;;;;;;;10.93;64.61;102076.41;5096487;28;20024;-59
2023/05/07 07:58:35;;;;;;;7.50;4.57;;;;;;;11.19;64.22;102079.22;5096350;28;20471;-58
2023/05/07 08:01:00;;;;;;;7.85;4.68;;;;;;;11.34;63.88;102082.34;5096214;28;20028;-57
2023/05/07 08:03:26;;;;;;;7.60;4.68;;;;;;;11.51;63.04;102090.69;5110314;28;20518;-60
2023/05/07 08:05:51;;;;;;;10.85;5.53;;;;;;;11.52;63.60;102097.75;5128061;27;20031;-58
2023/05/07 08:08:17;;;;;;;13.98;5.55;;;;;;;11.32;63.38;102094.78;5136159;27;20114;-58
2023/05/07 08:10:42;;;;;;;9.77;5.47;;;;;;;11.37;63.65;102088.41;5128269;27;20115;-58
2023/05/07 08:13:07;;;;;;;9.63;5.03;;;;;;;11.45;62.98;102085.56;5099766;28;20040;-58
2023/05/07 08:15:33;;;;;;;11.05;5.13;;;;;;;11.65;63.14;102086.78;5096446;28;20387;-58
2023/05/07 08:18:00;;;;;;;8.05;5.18;;;;;;;11.67;62.40;102090.25;5096210;28;20488;-58
2023/05/07 08:20:25;;;;;;;7.88;4.70;;;;;;;11.28;63.55;102090.44;5095590;28;20016;-58
2023/05/07 08:22:51;;;;;;;9.40;4.45;;;;;;;11.49;62.47;102094.28;5095728;28;20106;-58
2023/05/07 08:25:16;;;;;;;6.32;4.07;;;;;;;11.43;62.17;102095.34;5095652;28;20020;-58
2023/05/07 08:27:42;;;;;;;5.70;4.65;;;;;;;11.34;62.52;102087.66;5095591;28;20024;-60
2023/05/07 08:30:08;;;;;;;7.45;4.10;;;;;;;11.37;62.35;102087.56;5102386;28;20515;-58
2023/05/07 08:32:33;;;;;;;6.38;4.20;;;;;;;11.57;61.89;102079.94;5116176;28;20058;-58
2023/05/07 08:34:59;;;;;;;5.47;3.90;;;;;;;11.53;62.04;102086.22;5116534;28;20435;-58
2023/05/07 08:37:25;;;;;;;7.75;4.80;;;;;;;11.55;62.08;102083.53;5105753;28;20062;-58
2023/05/07 08:39:50;;;;;;;5.03;3.70;;;;;;;11.68;61.71;102086.69;5108293;28;20063;-58
2023/05/07 08:42:17;;;;;;;5.55;4.28;;;;;;;11.78;61.88;102088.16;5116007;28;20023;-58
2023/05/07 08:44:46;;;;;;;7.15;4.32;;;;;;;11.90;61.23;102087.81;5115572;28;20032;-58
2023/05/07 08:47:12;;;;;;;6.60;4.30;;;;;;;11.94;61.28;102089.47;5115191;28;20083;-58
2023/05/07 08:49:38;;;;;;;7.32;3.88;;;;;;;12.15;60.68;102080.94;5094895;28;20115;-59
2023/05/07 08:52:03;;;;;;;6.82;4.47;;;;;;;12.27;60.58;102081.38;5094592;28;20042;-59
2023/05/07 08:54:29;;;;;;;7.78;3.75;;;;;;;12.35;60.88;102082.94;5096035;28;20097;-60
2023/05/07 08:56:54;;;;;;;6.40;3.90;;;;;;;12.67;59.80;102085.41;5094599;28;20424;-59
2023/05/07 08:59:20;;;;;;;5.57;3.97;;;;;;;12.88;59.69;102082.97;5110710;27;20023;-58
2023/05/07 09:01:45;;;;;;;4.95;3.15;;;;;;;12.67;58.85;102082.75;5105039;28;20059;-59
2023/05/07 09:04:12;;;;;;;8.18;3.45;;;;;;;12.88;58.72;102080.31;5097057;28;20028;-57
2023/05/07 09:06:41;;;;;;;4.07;2.95;;;;;;;13.06;58.21;102081.47;5108590;27;20103;-59
2023/05/07 09:09:07;;;;;;;6.30;3.17;;;;;;;12.91;58.32;102087.28;5107721;28;20027;-58
2023/05/07 09:11:32;;;;;;;3.85;3.03;;;;;;;12.75;57.87;102086.94;5110273;28;20098;-58
2023/05/07 09:14:01;;;;;;;5.43;2.95;;;;;;;12.97;57.32;102092.38;5115094;28;20027;-58
2023/05/07 09:16:26;;;;;;;6.47;3.20;;;;;;;12.94;57.68;102093.34;5130072;27;20102;-58
2023/05/07 09:18:53;;;;;;;4.28;2.97;;;;;;;13.14;57.17;102089.13;5135608;27;20062;-58
2023/05/07 09:21:20;;;;;;;5.30;3.10;;;;;;;13.02;57.54;102093.94;5135553;27;20466;-58
2023/05/07 09:23:51;;;;;;;4.82;3.00;;;;;;;13.01;57.00;102094.88;5128161;27;20073;-57
2023/05/07 09:26:16;;;;;;;6.30;2.95;;;;;;;13.29;56.75;102087.72;5095172;28;20055;-57
2023/05/07 09:28:42;;;;;;;7.43;2.97;;;;;;;13.68;56.52;102088.13;5130802;27;20359;-59
2023/05/07 09:31:09;;;;;;;5.45;2.83;;;;;;;13.75;55.68;102081.63;5133418;27;20023;-59
2023/05/07 09:33:35;;;;;;;6.00;2.75;;;;;;;13.55;55.70;102092.13;5113219;28;20028;-58
2023/05/07 09:36:08;;;;;;;3.92;2.30;;;;;;;13.93;54.85;102090.69;5116062;28;20352;-58
2023/05/07 09:38:34;;;;;;;4.88;2.65;;;;;;;13.81;55.50;102087.63;5115665;28;20073;-58
2023/05/07 09:41:04;;;;;;;7.15;2.65;;;;;;;13.83;55.23;102088.44;5115334;28;20344;-58
2023/05/07 09:43:34;;;;;;;3.55;2.30;;;;;;;14.13;55.84;102091.72;5099912;28;20028;-58
2023/05/07 09:46:11;;;;;;;3.40;2.53;;;;;;;13.92;55.39;102085.44;5115008;28;20217;-58
2023/05/07 09:48:42;;;;;;;6.07;3.13;;;;;;;14.08;55.54;102089.22;5115457;28;20024;-58
2023/05/07 09:51:21;;;;;;;5.40;3.35;;;;;;;13.97;54.86;102085.25;5108745;28;20111;-59
2023/05/07 09:53:48;;;;;;;9.63;3.25;;;;;;;14.01;54.86;102087.75;5094478;28;20020;-58
2023/05/07 09:56:15;;;;;;;4.65;2.42;;;;;;;14.03;54.82;102091.19;5094114;28;20115;-58
2023/05/07 09:58:41;;;;;;;3.63;3.00;;;;;;;14.39;54.00;102088.00;5094077;28;20023;-58
2023/05/07 10:01:07;;;;;;;7.88;2.72;;;;;;;14.47;53.45;102091.22;5106018;28;20058;-58
2023/05/07 10:03:35;;;;;;;3.35;2.40;;;;;;;15.10;52.02;102095.72;5117742;27;20410;-58
2023/05/07 10:06:00;;;;;;;3.10;2.08;;;;;;;14.78;53.00;102081.16;5123589;27;20024;-58
2023/05/07 10:08:27;;;;;;;4.43;2.53;;;;;;;14.44;52.58;102088.69;5114422;28;20106;-59
2023/05/07 10:10:52;;;;;;;3.95;2.55;;;;;;;14.22;52.76;102090.47;5103767;28;20103;-59
2023/05/07 10:13:19;;;;;;;4.20;2.00;;;;;;;14.35;52.96;102097.03;5114234;28;20027;-58
2023/05/07 10:15:44;;;;;;;9.13;3.38;;;;;;;14.21;53.04;102094.94;5103358;28;20055;-58
2023/05/07 10:18:12;;;;;;;6.70;2.13;;;;;;;14.26;52.29;102092.09;5100519;28;20024;-58
2023/05/07 10:20:39;;;;;;;3.10;2.17;;;;;;;14.22;52.12;102090.47;5094642;28;20089;-59
2023/05/07 10:23:05;;;;;;;4.25;2.63;;;;;;;14.28;52.43;102100.88;5103759;28;20092;-59
2023/05/07 10:25:32;;;;;;;8.05;3.95;;;;;;;14.36;51.84;102093.44;5114505;28;20039;-58
2023/05/07 10:28:04;;;;;;;4.15;2.63;;;;;;;14.89;50.92;102097.50;5102786;28;20039;-59
2023/05/07 10:30:32;;;;;;;3.70;2.42;;;;;;;14.82;51.15;102096.91;5109453;28;20096;-59
2023/05/07 10:33:05;;;;;;;4.35;1.90;;;;;;;14.63;51.68;102104.81;5101995;28;20110;-58
2023/05/07 10:35:35;;;;;;;4.18;2.85;;;;;;;14.84;52.05;102089.75;5095240;28;20028;-59
2023/05/07 10:38:02;;;;;;;7.33;2.60;;;;;;;15.08;52.36;102102.06;5110220;28;20042;-58
2023/05/07 10:40:27;;;;;;;5.05;2.53;;;;;;;15.27;51.18;102107.44;5112875;28;20059;-58
2023/05/07 10:43:01;;;;;;;4.15;2.20;;;;;;;14.98;50.90;102102.44;5113414;28;20066;-59
2023/05/07 10:45:27;;;;;;;5.63;2.20;;;;;;;15.28;49.90;102109.16;5106344;28;20028;-58
2023/05/07 10:48:15;;;;;;;6.93;2.00;;;;;;;15.55;49.80;102101.75;5093597;28;20031;-58
2023/05/07 10:50:42;;;;;;;3.88;1.83;;;;;;;16.12;47.73;102101.84;5093953;28;20031;-59
2023/05/07 10:53:16;;;;;;;5.05;3.92;;;;;;;16.61;45.18;102102.09;5093044;28;20090;-58
2023/05/07 10:55:42;;;;;;;2.38;1.75;;;;;;;16.01;45.91;102109.47;5108917;28;20020;-59
2023/05/07 10:58:26;;;;;;;3.13;1.58;;;;;;;15.83;46.95;102096.06;5111463;28;20466;-59
2023/05/07 11:01:00;;;;;;;2.55;1.80;;;;;;;17.62;44.56;102092.47;5108725;28;20036;-59
2023/05/07 11:03:26;;;;;;;2.78;2.00;;;;;;;17.89;42.94;102091.94;5100498;28;20024;-59
2023/05/07 11:06:10;;;;;;;4.78;2.10;;;;;;;18.74;42.05;102087.97;5099135;28;20059;-57
2023/05/07 11:08:55;;;;;;;2.85;2.33;;;;;;;18.55;40.75;102090.00;5098957;28;20115;-57
2023/05/07 11:11:52;;;;;;;2.60;1.75;;;;;;;17.15;43.50;102087.88;5106052;28;20506;-57
2023/05/07 11:14:41;;;;;;;2.58;2.17;;;;;;;17.18;45.04;102087.69;5110641;28;20440;-57
2023/05/07 11:17:07;;;;;;;2.85;1.63;;;;;;;17.77;44.12;102094.31;5103182;28;20032;-58
2023/05/07 11:19:50;;;;;;;6.38;1.80;;;;;;;19.36;40.49;102084.31;5118191;27;20038;-58
2023/05/07 11:22:30;;;;;;;3.50;1.80;;;;;;;19.06;40.73;102087.88;5111404;27;20154;-58